Latest Coastal Weather Observations for Orbost

IDV60701

Issued at 10:05 pm EST Tuesday 2 September 2014 (issued every 10 minutes, with the page automatically refreshed every 10 minutes)

About coastal observations | Map of coastal stations | Coastal observations for VIC | Marine services | Other Formats
Station Details ID: 084145 Name: ORBOST Lat: -37.69 Lon: 148.47 Height: 62.65 m
Data from the previous 72 hours. | See also: Recent months at Orbost
Date/Time
EST
Temp

°C
Wind Pressure Rain
since 9am
mm
Weather Cloud Vis
km
Sea
Height
m
Swell
Dir
 
Speed
knots
Gust
knots
hPa Trend Height
m
Period
s
Dir
02/10:00pm 7.9 SW 12 24 1020.0 - 14.8 - - - - - - -
02/09:30pm 9.8 SW 14 18 1019.5 - 14.2 - - - - - - -
02/09:28pm 10.0 SSW 15 18 1019.5 - 14.2 - - - - - - -
02/09:00pm 9.3 WSW 4 7 1019.5 - 14.2 - - - - - - -
02/08:30pm 10.5 SSW 6 9 1019.4 - 14.2 - - - - - - -
02/08:00pm 10.6 SSW 8 13 1019.1 - 14.2 - - - - - - -
02/07:30pm 11.1 SSW 11 18 1018.9 - 14.2 - - - - - - -
02/07:00pm 11.1 SSW 11 18 1018.4 - 14.2 - - - - - - -
02/06:30pm 10.7 SSW 10 18 1018.1 - 14.2 - - - - - - -
02/06:00pm 10.8 SSW 8 18 1017.7 - 14.2 Recent precip. - - - - - -
02/05:30pm 9.4 S 7 13 1017.4 - 13.8 - - - - - - -
02/05:00pm 11.2 SSW 11 16 1016.9 - 13.4 - - - - - - -
02/04:30pm 12.1 SSW 12 21 1016.4 - 13.4 - - - - - - -
02/04:00pm 11.1 SW 9 15 1015.9 - 13.4 - - - - - - -
02/03:30pm 10.5 SSW 16 26 1015.5 - 13.4 - - - - - - -
02/03:22pm 11.1 SSW 16 26 1015.4 - 13.4 - - - - - - -
02/03:00pm 11.3 SSW 12 20 1015.0 - 13.4 Recent precip. - - - - - -
02/02:30pm 10.5 SSW 11 18 1014.6 - 13.0 - - - - - - -
02/02:00pm 9.7 SW 5 8 1014.4 - 12.8 - - - - - - -
02/01:30pm 9.4 S 8 14 1014.4 - 12.0 - - - - - - -
02/01:00pm 9.0 WSW 7 10 1014.1 - 11.0 - - - - - - -
02/12:30pm 8.6 W 6 12 1014.1 - 10.6 - - - - - - -
02/12:00pm 8.9 WNW 5 7 1013.9 - 6.2 Rain - - - - - -
02/11:30am 8.8 SW 4 5 1014.1 - 5.0 - - - - - - -
02/11:00am 9.1 W 2 4 1014.4 - 3.6 - - - - - - -
02/10:30am 8.8 S 4 7 1014.5 - 2.8 - - - - - - -
02/10:00am 9.2 SSW 4 8 1014.3 - 1.4 - - - - - - -
02/09:30am 9.4 SSW 10 17 1014.0 - 0.6 - - - - - - -
02/09:00am 9.7 SSW 9 13 1013.9 - 7.2 Recent precip. - - - - - -
02/08:30am 9.6 SW 10 16 1013.4 - 7.0 - - - - - - -
02/08:00am 9.2 SW 15 23 1013.2 - 7.0 - - - - - - -
02/07:30am 10.2 W 10 16 1011.9 - 7.0 - - - - - - -
02/07:00am 10.1 W 9 14 1011.7 - 7.0 - - - - - - -
02/06:30am 10.1 W 10 16 1011.4 - 7.0 - - - - - - -
02/06:00am 10.0 W 8 14 1011.2 - 7.0 - - - - - - -
02/05:30am 9.9 WNW 7 11 1011.1 - 7.0 - - - - - - -
02/05:00am 9.9 WNW 7 11 1011.0 - 7.0 - - - - - - -
02/04:30am 9.9 WNW 7 11 1010.7 - 7.0 - - - - - - -
02/04:00am 9.8 WNW 7 10 1010.6 - 7.0 - - - - - - -
02/03:30am 9.7 WNW 5 8 1010.5 - 7.0 - - - - - - -
02/03:00am 9.6 W 5 9 1010.3 - 7.0 Recent precip. - - - - - -
02/02:30am 9.5 WNW 5 7 1010.4 - 6.8 - - - - - - -
02/02:00am 9.5 WNW 5 8 1010.6 - 6.6 - - - - - - -
02/01:30am 9.4 WNW 5 8 1010.5 - 6.0 - - - - - - -
02/01:00am 9.4 WNW 5 8 1010.5 - 5.6 - - - - - - -
02/12:30am 9.6 WNW 4 6 1010.5 - 5.0 - - - - - - -
02/12:00am 9.7 WNW 4 7 1010.6 - 4.4 Rain - - - - - -
 
Date/Time
EST
Temp

°C
Wind Pressure Rain
since 9am
mm
Weather Cloud Vis
km
Sea
Height
m
Swell
Dir
 
Speed
knots
Gust
knots
hPa Trend Height
m
Period
s
Dir
01/11:30pm 10.1 W 6 11 1010.5 - 3.6 - - - - - - -
01/11:00pm 10.4 W 5 9 1010.0 - 3.2 - - - - - - -
01/10:30pm 10.7 WNW 2 4 1010.2 - 2.2 - - - - - - -
01/10:00pm 11.0 W 3 7 1010.1 - 1.2 - - - - - - -
01/09:30pm 11.0 CALM 0 2 1010.0 - 0.8 - - - - - - -
01/09:00pm 11.2 S 1 2 1010.0 - 0.8 Recent precip. - - - - - -
01/08:30pm 11.4 ESE 2 3 1010.0 - 0.8 - - - - - - -
01/08:00pm 11.7 ENE 2 3 1010.1 - 0.6 - - - - - - -
01/07:30pm 12.2 W 1 2 1009.8 - 0.0 - - - - - - -
01/07:00pm 12.7 WSW 5 8 1009.3 - 0.0 - - - - - - -
01/06:30pm 12.9 SW 5 7 1008.7 - 0.0 - - - - - - -
01/06:00pm 13.4 W 3 6 1008.5 - 0.0 - - - - - - -
01/05:30pm 14.2 WSW 9 16 1008.4 - 0.0 - - - - - - -
01/05:00pm 16.5 WSW 12 22 1007.0 - 0.0 - - - - - - -
01/04:30pm 19.6 NNW 8 11 1005.5 - 0.0 - - - - - - -
01/04:00pm 19.3 NNE 5 7 1005.3 - 0.0 - - - - - - -
01/03:30pm 19.1 NE 4 7 1005.7 - 0.0 - - - - - - -
01/03:00pm 19.0 NW 2 3 1006.1 - 0.0 - - - - - - -
01/02:30pm 18.5 N 1 2 1006.3 - 0.0 - - - - - - -
01/02:00pm 18.0 NW 2 4 1006.5 - 0.0 - - - - - - -
01/01:30pm 18.2 NNE 2 4 1006.7 - 0.0 - - - - - - -
01/01:00pm 18.4 NE 3 5 1007.2 - 0.0 - - - - - - -
01/12:30pm 18.9 NNE 3 5 1007.9 - 0.0 - - - - - - -
01/12:00pm 19.5 N 5 9 1008.7 - 0.0 - - - - - - -
01/11:30am 20.3 NNW 6 9 1009.2 - 0.0 - - - - - - -
01/11:00am 20.1 W 4 6 1009.5 - 0.0 - - - - - - -
01/10:30am 21.3 N 6 11 1009.4 - 0.0 - - - - - - -
01/10:00am 17.4 NW 4 6 1010.0 - 0.0 - - - - - - -
01/09:30am 15.4 SW 1 2 1010.2 - 0.0 - - - - - - -
01/09:00am 14.8 CALM 0 0 1010.4 - 0.0 - - - - - - -
01/08:30am 12.9 SE 1 4 1010.8 - 0.0 - - - - - - -
01/08:00am 12.4 E 3 4 1011.2 - 0.0 - - - - - - -
01/07:30am 10.6 S 2 3 1011.6 - 0.0 - - - - - - -
01/07:00am 10.2 SSE 1 2 1011.5 - 0.0 - - - - - - -
01/06:30am 11.1 CALM 0 0 1011.5 - 0.0 - - - - - - -
01/06:00am 11.8 CALM 0 0 1011.1 - 0.0 - - - - - - -
01/05:30am 10.6 SE 1 3 1011.0 - 0.0 - - - - - - -
01/05:00am 13.0 N 4 6 1010.9 - 0.0 - - - - - - -
01/04:30am 13.9 N 3 6 1011.1 - 0.0 - - - - - - -
01/04:00am 12.1 N 2 2 1011.1 - 0.0 - - - - - - -
01/03:30am 11.5 CALM 0 3 1011.3 - 0.0 - - - - - - -
01/03:00am 10.9 NNE 1 2 1011.7 - 0.0 - - - - - - -
01/02:30am 12.2 N 4 5 1011.9 - 0.0 - - - - - - -
01/02:00am 11.4 ENE 2 3 1012.3 - 0.0 - - - - - - -
01/01:30am 11.4 NNE 2 6 1013.0 - 0.0 - - - - - - -
01/01:00am 11.2 NE 1 3 1013.4 - 0.0 - - - - - - -
01/12:30am 11.4 CALM 0 0 1013.8 - 0.0 - - - - - - -
01/12:00am 10.8 NNE 2 3 1013.9 - 0.0 - - - - - - -
 
Date/Time
EST
Temp

°C
Wind Pressure Rain
since 9am
mm
Weather Cloud Vis
km
Sea
Height
m
Swell
Dir
 
Speed
knots
Gust
knots
hPa Trend Height
m
Period
s
Dir
31/11:30pm 9.7 NNW 2 4 1014.2 - 0.0 - - - - - - -
31/11:00pm 10.8 N 2 3 1014.4 - 0.0 - - - - - - -
31/10:30pm 10.3 CALM 0 0 1014.7 - 0.0 - - - - - - -
31/10:00pm 11.4 CALM 0 0 1015.0 - 0.0 - - - - - - -
31/09:30pm 11.1 N 3 4 1015.2 - 0.0 - - - - - - -
31/09:00pm 10.3 N 3 4 1015.3 - 0.0 - - - - - - -
31/08:30pm 12.3 CALM 0 0 1015.4 - 0.0 - - - - - - -
31/08:00pm 11.4 CALM 0 2 1015.5 - 0.0 - - - - - - -
31/07:30pm 13.5 CALM 0 0 1015.6 - 0.0 - - - - - - -
31/07:00pm 12.5 W 1 2 1015.5 - 0.0 - - - - - - -
31/06:30pm 13.9 ENE 3 4 1015.4 - 0.0 - - - - - - -
31/06:00pm 13.4 ENE 3 4 1015.5 - 0.0 - - - - - - -
31/05:30pm 14.6 E 2 3 1015.5 - 0.0 - - - - - - -
31/05:00pm 16.2 ESE 3 4 1015.5 - 0.0 - - - - - - -
31/04:30pm 17.1 SSE 4 6 1015.5 - 0.0 - - - - - - -
31/04:00pm 17.7 SSE 3 6 1015.5 - 0.0 - - - - - - -
31/03:30pm 18.3 SE 4 6 1015.6 - 0.0 - - - - - - -
31/03:00pm 18.2 SE 4 7 1015.8 - 0.0 - - - - - - -
31/02:30pm 18.3 SSE 4 5 1016.1 - 0.0 - - - - - - -
31/02:00pm 18.6 SE 4 6 1016.6 - 0.0 - - - - - - -
31/01:30pm 18.5 S 5 7 1017.0 - 0.0 - - - - - - -
31/01:00pm 19.6 W 3 5 1017.4 - 0.0 - - - - - - -
31/12:30pm 19.0 W 3 6 1017.6 - 0.0 - - - - - - -
31/12:00pm 18.1 W 3 6 1018.0 - 0.0 - - - - - - -
31/11:30am 17.3 W 2 4 1018.6 - 0.0 - - - - - - -
31/11:00am 17.3 WSW 1 4 1019.0 - 0.0 - - - - - - -
31/10:30am 15.3 WNW 1 3 1019.4 - 0.0 - - - - - - -
31/10:00am 13.9 W 2 3 1019.8 - 0.0 - - - - - - -
31/09:30am 12.7 WNW 2 3 1020.0 - 0.0 - - - - - - -
31/09:00am 11.3 CALM 0 2 1020.1 - 0.2 - - - - - - -
31/08:30am 9.5 CALM 0 0 1020.3 - 0.2 - - - - - - -
31/08:00am 8.3 CALM 0 2 1020.4 - 0.2 - - - - - - -
31/07:30am 7.2 N 1 2 1020.3 - 0.2 - - - - - - -
31/07:00am 6.5 N 1 2 1020.1 - 0.2 - - - - - - -
31/06:30am 6.2 CALM 0 2 1020.0 - 0.0 - - - - - - -
31/06:00am 6.4 CALM 0 0 1020.0 - 0.0 - - - - - - -
31/05:30am 5.4 N 2 2 1019.9 - 0.0 - - - - - - -
31/05:00am 6.4 N 1 2 1019.8 - 0.0 - - - - - - -
31/04:30am 5.8 NNW 2 2 1019.7 - 0.0 - - - - - - -
31/04:00am 5.9 N 2 4 1019.7 - 0.0 - - - - - - -
31/03:30am 5.5 N 1 2 1020.0 - 0.0 - - - - - - -
31/03:00am 6.0 CALM 0 1 1020.4 - 0.0 - - - - - - -
31/02:30am 6.4 N 3 3 1020.6 - 0.0 - - - - - - -
31/02:00am 6.9 N 3 3 1021.1 - 0.0 - - - - - - -
31/01:30am 7.4 N 3 4 1021.5 - 0.0 - - - - - - -
31/01:00am 6.7 E 1 2 1021.8 - 0.0 - - - - - - -
31/12:30am 7.2 CALM 0 0 1021.9 - 0.0 - - - - - - -
31/12:00am 7.8 NNW 1 2 1022.0 - 0.0 - - - - - - -
 
Date/Time
EST
Temp

°C
Wind Pressure Rain
since 9am
mm
Weather Cloud Vis
km
Sea
Height
m
Swell
Dir
 
Speed
knots
Gust
knots
hPa Trend Height
m
Period
s
Dir
30/11:30pm 7.6 ENE 1 3 1022.2 - 0.0 - - - - - - -
30/11:00pm 8.8 N 1 2 1022.5 - 0.0 - - - - - - -
30/10:30pm 9.0 CALM 0 2 1022.6 - 0.0 - - - - - - -

Other Formats:

Comma delimited format used in spreadsheet applications
http://www.bom.gov.au/fwo/IDV60701/IDV60701.95918.axf

JavaScript Object Notation format (JSON) in row-major order
http://www.bom.gov.au/fwo/IDV60701/IDV60701.95918.json